Time;durP1;ratioP1;P1;durP2;ratioP2;P2;SDS_P1;SDS_P2;PMS_P1;PMS_P2;Temp;Humidity;BMP_temperature;BMP_pressure;BME280_temperature;BME280_humidity;BME280_pressure;Samples;Min_cycle;Max_cycle;Signal;HPM_P1;HPM_P2
2023/09/06 00:00:52;;;;;;;11.50;8.27;;;20.40;99.90;;;;;;5092483;28;20097;-70
2023/09/06 00:03:18;;;;;;;10.38;8.25;;;20.40;99.90;;;;;;5093832;28;20504;-70
2023/09/06 00:05:44;;;;;;;12.50;8.95;;;20.40;99.90;;;;;;5093743;28;20040;-70
2023/09/06 00:08:14;;;;;;;9.30;8.25;;;20.30;99.90;;;;;;5093814;28;20044;-70
2023/09/06 00:10:40;;;;;;;8.68;7.78;;;20.30;99.90;;;;;;5094047;28;20055;-69
2023/09/06 00:13:11;;;;;;;11.65;8.20;;;20.30;99.90;;;;;;5093656;28;20044;-70
2023/09/06 00:15:37;;;;;;;10.10;8.30;;;20.30;99.90;;;;;;5092670;28;20051;-69
2023/09/06 00:47:33;;;;;;;11.57;8.73;;;20.00;99.90;;;;;;5093100;28;20058;-69
2023/09/06 00:49:58;;;;;;;10.70;8.52;;;20.00;99.90;;;;;;5093251;28;20029;-70
2023/09/06 00:52:24;;;;;;;9.95;8.05;;;20.00;99.90;;;;;;5093343;28;20036;-70
2023/09/06 00:54:50;;;;;;;13.10;8.43;;;19.90;99.90;;;;;;5092944;28;20123;-69
2023/09/06 00:57:15;;;;;;;10.60;7.93;;;19.90;99.90;;;;;;5092306;28;20132;-70
2023/09/06 00:59:43;;;;;;;9.80;8.25;;;20.00;99.90;;;;;;5092681;28;20036;-70
2023/09/06 01:02:09;;;;;;;11.57;8.00;;;19.90;99.90;;;;;;5092981;28;20028;-70
2023/09/06 01:04:34;;;;;;;10.18;7.57;;;19.90;99.90;;;;;;5091764;28;20100;-70
2023/09/06 01:07:03;;;;;;;12.52;8.20;;;19.90;99.90;;;;;;5092848;28;20079;-70
2023/09/06 01:09:29;;;;;;;8.95;7.65;;;19.90;99.90;;;;;;5092688;28;20046;-69
2023/09/06 01:11:55;;;;;;;9.70;7.70;;;19.90;99.90;;;;;;5092788;28;20036;-69
2023/09/06 01:14:20;;;;;;;8.85;7.95;;;19.90;99.90;;;;;;5092477;28;20055;-70
2023/09/06 01:16:48;;;;;;;9.13;7.68;;;19.90;99.90;;;;;;5092618;28;20040;-70
2023/09/06 01:19:15;;;;;;;11.30;8.18;;;19.90;99.90;;;;;;5092515;28;20044;-70
2023/09/06 01:22:11;;;;;;;10.85;8.05;;;19.80;99.90;;;;;;5091602;28;20040;-70
2023/09/06 01:24:37;;;;;;;9.75;8.13;;;19.80;99.90;;;;;;5091487;28;20051;-70
2023/09/06 01:27:04;;;;;;;10.45;7.90;;;19.80;99.90;;;;;;5092463;28;20036;-70
2023/09/06 01:29:31;;;;;;;8.75;7.35;;;19.80;99.90;;;;;;5090883;28;20048;-70
2023/09/06 01:31:56;;;;;;;9.45;7.53;;;19.80;99.90;;;;;;5091193;28;20048;-70
2023/09/06 01:34:22;;;;;;;9.18;7.47;;;19.80;99.90;;;;;;5092360;28;20118;-70
2023/09/06 01:36:48;;;;;;;9.18;7.47;;;19.90;99.90;;;;;;5092304;28;20042;-70
2023/09/06 01:39:13;;;;;;;10.65;8.55;;;19.90;99.90;;;;;;5091946;28;20082;-70
2023/09/06 01:41:39;;;;;;;11.23;7.07;;;19.80;99.90;;;;;;5092227;28;20403;-70
2023/09/06 01:44:04;;;;;;;11.07;7.03;;;19.90;99.90;;;;;;5092027;28;20467;-70
2023/09/06 01:46:30;;;;;;;8.48;6.88;;;19.80;99.90;;;;;;5092292;28;20039;-70
2023/09/06 01:48:55;;;;;;;13.13;8.48;;;19.70;99.90;;;;;;5090858;28;20051;-70
2023/09/06 01:51:22;;;;;;;11.15;8.18;;;19.70;99.90;;;;;;5091952;28;20126;-70
2023/09/06 01:53:48;;;;;;;9.52;7.70;;;19.70;99.90;;;;;;5090510;28;20044;-70
2023/09/06 01:56:13;;;;;;;11.52;8.45;;;19.60;99.90;;;;;;5091914;28;20047;-70
2023/09/06 01:58:40;;;;;;;10.18;7.93;;;19.50;99.90;;;;;;5091711;28;20039;-70
2023/09/06 02:01:09;;;;;;;14.95;8.57;;;19.40;99.90;;;;;;5091692;28;20039;-70
2023/09/06 02:03:35;;;;;;;11.32;8.98;;;19.40;99.90;;;;;;5090574;28;20089;-70
2023/09/06 02:06:01;;;;;;;11.98;9.45;;;19.30;99.90;;;;;;5091938;28;20032;-70
2023/09/06 02:08:27;;;;;;;14.30;9.32;;;19.20;99.90;;;;;;5091664;28;20040;-70
2023/09/06 02:10:52;;;;;;;12.35;8.50;;;19.20;99.90;;;;;;5091619;28;20039;-70
2023/09/06 02:13:18;;;;;;;13.32;8.75;;;19.20;99.90;;;;;;5091703;28;20123;-70
2023/09/06 02:15:43;;;;;;;10.15;8.63;;;19.10;99.90;;;;;;5091714;28;20089;-70
2023/09/06 02:18:10;;;;;;;10.57;8.73;;;19.00;99.90;;;;;;5091605;28;20040;-70
2023/09/06 02:20:39;;;;;;;9.75;8.52;;;19.00;99.90;;;;;;5091696;28;20036;-70
2023/09/06 02:23:05;;;;;;;11.35;9.10;;;19.00;99.90;;;;;;5090453;28;20071;-70
2023/09/06 02:25:31;;;;;;;12.35;8.55;;;19.00;99.90;;;;;;5091547;28;20047;-70
2023/09/06 02:28:03;;;;;;;11.57;9.23;;;19.00;99.90;;;;;;5091540;28;20047;-70
2023/09/06 02:30:28;;;;;;;11.52;8.68;;;18.90;99.90;;;;;;5090275;28;20123;-70
2023/09/06 02:32:55;;;;;;;17.05;8.82;;;18.80;99.90;;;;;;5091667;28;20119;-70
2023/09/06 02:35:21;;;;;;;10.88;9.00;;;18.80;99.90;;;;;;5090502;28;20507;-71
2023/09/06 02:37:47;;;;;;;9.80;8.80;;;18.80;99.90;;;;;;5091477;28;20072;-70
2023/09/06 02:40:13;;;;;;;10.48;8.55;;;18.80;99.90;;;;;;5091314;28;20552;-70
2023/09/06 02:42:44;;;;;;;11.60;9.10;;;18.80;99.90;;;;;;5091398;28;20491;-70
2023/09/06 02:45:13;;;;;;;9.68;8.23;;;18.70;99.90;;;;;;5091533;28;20036;-70
2023/09/06 02:47:48;;;;;;;12.35;9.55;;;18.70;99.90;;;;;;5091495;28;20040;-70
2023/09/06 02:50:14;;;;;;;11.02;9.10;;;18.70;99.90;;;;;;5091353;28;20531;-70
2023/09/06 02:52:44;;;;;;;11.15;9.13;;;18.70;99.90;;;;;;5091390;28;20181;-70
2023/09/06 02:55:13;;;;;;;9.60;7.40;;;18.60;99.90;;;;;;5091397;28;20040;-70
2023/09/06 02:57:40;;;;;;;10.68;7.63;;;18.60;99.90;;;;;;5091423;28;20040;-70
2023/09/06 03:00:18;;;;;;;10.20;7.78;;;18.60;99.90;;;;;;5091331;28;20032;-70
2023/09/06 03:02:45;;;;;;;9.88;7.85;;;18.50;99.90;;;;;;5091469;28;20059;-70
2023/09/06 03:05:16;;;;;;;10.75;9.02;;;18.50;99.90;;;;;;5091230;28;20036;-70
2023/09/06 03:07:48;;;;;;;11.02;8.63;;;18.50;99.90;;;;;;5091442;28;20132;-70
2023/09/06 03:10:19;;;;;;;10.43;9.15;;;18.50;99.90;;;;;;5091271;28;20044;-70
2023/09/06 03:12:57;;;;;;;12.45;9.38;;;18.50;99.90;;;;;;5091310;28;20093;-70
2023/09/06 03:15:28;;;;;;;12.45;9.32;;;18.40;99.90;;;;;;5091218;28;20047;-70
2023/09/06 03:17:54;;;;;;;11.98;9.68;;;18.40;99.90;;;;;;5091130;28;20047;-70
2023/09/06 03:20:33;;;;;;;16.33;9.35;;;18.30;99.90;;;;;;5090079;28;20071;-70
2023/09/06 03:23:16;;;;;;;11.02;9.30;;;18.30;99.90;;;;;;5095059;28;20036;-70
2023/09/06 03:25:55;;;;;;;12.65;8.63;;;18.30;99.90;;;;;;5094634;28;20117;-70
2023/09/06 03:28:21;;;;;;;10.63;8.07;;;18.20;99.90;;;;;;5094697;28;20042;-70
2023/09/06 03:30:48;;;;;;;9.32;7.85;;;18.20;99.90;;;;;;5094743;28;20115;-71
2023/09/06 03:33:13;;;;;;;11.25;8.57;;;18.30;99.90;;;;;;5094689;28;20173;-70
2023/09/06 03:35:41;;;;;;;12.38;8.90;;;18.30;99.90;;;;;;5094627;28;20040;-70
2023/09/06 03:38:10;;;;;;;9.18;7.93;;;18.30;99.90;;;;;;5094469;28;20487;-70
2023/09/06 03:40:35;;;;;;;10.80;7.40;;;18.30;99.90;;;;;;5094234;28;20510;-70
2023/09/06 03:43:06;;;;;;;10.10;7.88;;;18.30;99.90;;;;;;5094716;28;20040;-71
2023/09/06 03:45:32;;;;;;;10.77;7.65;;;18.30;99.90;;;;;;5094507;28;20044;-70
2023/09/06 03:47:58;;;;;;;9.55;7.85;;;18.30;99.90;;;;;;5093206;28;20043;-70
2023/09/06 03:50:24;;;;;;;10.30;7.65;;;18.30;99.90;;;;;;5093994;28;20036;-70
2023/09/06 03:52:50;;;;;;;12.48;8.15;;;18.30;99.90;;;;;;5093064;28;20535;-71
2023/09/06 03:55:17;;;;;;;11.68;8.27;;;18.30;99.90;;;;;;5093723;28;20059;-70
2023/09/06 03:57:43;;;;;;;12.65;8.30;;;18.20;99.90;;;;;;5092841;28;20068;-71
2023/09/06 04:00:31;;;;;;;10.73;7.75;;;18.20;99.90;;;;;;5094192;28;20077;-71
2023/09/06 04:02:59;;;;;;;14.38;8.00;;;18.20;99.90;;;;;;5092890;28;20082;-70
2023/09/06 04:05:26;;;;;;;12.00;7.95;;;18.20;99.90;;;;;;5093709;28;20040;-70
2023/09/06 04:07:56;;;;;;;8.60;7.45;;;18.20;99.90;;;;;;5093509;28;20117;-70
2023/09/06 04:10:35;;;;;;;9.98;7.63;;;18.20;99.90;;;;;;5093522;28;20072;-70
2023/09/06 04:13:01;;;;;;;10.73;7.75;;;18.10;99.90;;;;;;5093767;28;20089;-71
2023/09/06 04:15:28;;;;;;;11.32;7.72;;;18.10;99.90;;;;;;5093677;28;20075;-70
2023/09/06 04:17:59;;;;;;;10.32;8.27;;;18.10;99.90;;;;;;5093612;28;20480;-70
2023/09/06 04:20:31;;;;;;;9.98;7.60;;;18.10;99.90;;;;;;5092423;28;20161;-70
2023/09/06 04:22:58;;;;;;;9.15;7.57;;;18.10;99.90;;;;;;5093873;28;20524;-70
2023/09/06 04:25:26;;;;;;;9.50;8.48;;;18.10;99.90;;;;;;5093302;28;20048;-71
2023/09/06 04:27:55;;;;;;;10.52;8.40;;;18.00;99.90;;;;;;5093609;28;20036;-71
2023/09/06 04:30:22;;;;;;;12.25;8.27;;;18.00;99.90;;;;;;5093367;28;20036;-70
2023/09/06 04:32:48;;;;;;;10.77;7.63;;;18.00;99.90;;;;;;5092173;28;20393;-71
2023/09/06 04:35:15;;;;;;;11.25;7.90;;;18.00;99.90;;;;;;5093504;28;20051;-70
2023/09/06 04:37:44;;;;;;;9.68;7.10;;;18.00;99.90;;;;;;5092054;28;20107;-70
2023/09/06 04:40:12;;;;;;;10.57;6.63;;;18.00;99.90;;;;;;5088317;28;20040;-70
2023/09/06 04:42:39;;;;;;;8.40;7.50;;;18.00;99.90;;;;;;5092498;28;20032;-70
2023/09/06 04:45:06;;;;;;;11.27;8.07;;;18.00;99.90;;;;;;5092935;28;20047;-70
2023/09/06 04:47:32;;;;;;;11.27;7.03;;;18.00;99.90;;;;;;5092773;28;20064;-70
2023/09/06 04:49:58;;;;;;;11.55;7.65;;;18.00;99.90;;;;;;5092891;28;20074;-70
2023/09/06 04:52:26;;;;;;;9.35;7.25;;;17.90;99.90;;;;;;5092943;28;20032;-70
2023/09/06 04:54:52;;;;;;;9.25;7.18;;;17.90;99.90;;;;;;5092936;28;20044;-70
2023/09/06 04:57:18;;;;;;;10.70;7.53;;;17.90;99.90;;;;;;5092782;28;20036;-70
2023/09/06 04:59:44;;;;;;;11.90;7.40;;;17.90;99.90;;;;;;5091624;28;20522;-70
2023/09/06 05:02:10;;;;;;;10.68;6.75;;;17.80;99.90;;;;;;5092929;28;20483;-70
2023/09/06 05:04:36;;;;;;;9.90;7.07;;;17.80;99.90;;;;;;5092753;28;20047;-70
2023/09/06 05:07:05;;;;;;;9.18;7.40;;;17.80;99.90;;;;;;5092986;28;20044;-70
2023/09/06 05:09:31;;;;;;;8.30;6.95;;;17.80;99.90;;;;;;5091191;28;20043;-70
2023/09/06 05:11:57;;;;;;;9.27;7.43;;;17.80;99.90;;;;;;5092800;28;20051;-71
2023/09/06 05:14:23;;;;;;;11.38;7.65;;;17.90;99.90;;;;;;5090907;28;20186;-71
2023/09/06 05:16:48;;;;;;;8.82;6.65;;;17.80;99.90;;;;;;5092727;28;20043;-70
2023/09/06 05:19:14;;;;;;;8.40;7.00;;;17.90;99.90;;;;;;5091285;28;20038;-72
2023/09/06 05:21:40;;;;;;;7.72;6.93;;;17.90;99.90;;;;;;5092678;28;20083;-70
2023/09/06 05:24:05;;;;;;;10.18;6.95;;;17.90;99.90;;;;;;5092184;28;20115;-70
2023/09/06 05:26:33;;;;;;;9.52;7.30;;;18.00;99.90;;;;;;5092348;28;20040;-70
2023/09/06 05:28:59;;;;;;;10.43;6.90;;;18.00;99.90;;;;;;5092195;28;20050;-70
2023/09/06 05:31:24;;;;;;;10.02;7.13;;;18.10;99.90;;;;;;5092633;28;20036;-70
2023/09/06 05:33:50;;;;;;;11.35;7.82;;;18.20;99.90;;;;;;5092381;28;20072;-70
2023/09/06 05:36:16;;;;;;;11.57;8.27;;;18.20;99.90;;;;;;5092485;28;20491;-70
2023/09/06 05:38:41;;;;;;;10.02;6.85;;;18.30;99.90;;;;;;5092096;28;20047;-70
2023/09/06 05:41:07;;;;;;;11.15;7.45;;;18.40;99.90;;;;;;5092350;28;20040;-69
2023/09/06 05:43:32;;;;;;;9.60;7.47;;;18.40;99.90;;;;;;5091789;28;20042;-69
2023/09/06 05:45:58;;;;;;;11.60;8.32;;;18.50;99.90;;;;;;5092498;28;20096;-69
2023/09/06 05:48:23;;;;;;;10.77;8.23;;;18.50;99.90;;;;;;5092380;28;20119;-69
2023/09/06 05:50:49;;;;;;;10.13;7.20;;;18.60;99.90;;;;;;5090377;28;20044;-69
2023/09/06 05:53:15;;;;;;;8.68;7.28;;;18.60;99.90;;;;;;5091994;28;20039;-69
2023/09/06 05:55:40;;;;;;;8.77;7.03;;;18.70;99.90;;;;;;5091682;28;20043;-69
2023/09/06 05:58:06;;;;;;;8.80;6.93;;;18.80;99.90;;;;;;5091823;28;20157;-69
2023/09/06 06:00:33;;;;;;;9.98;8.55;;;18.80;99.90;;;;;;5091993;28;20107;-69
2023/09/06 06:03:01;;;;;;;11.05;7.55;;;18.90;99.90;;;;;;5092110;28;20036;-69
2023/09/06 06:05:28;;;;;;;9.63;7.35;;;19.00;99.90;;;;;;5091967;28;20040;-70
2023/09/06 06:07:54;;;;;;;8.07;6.68;;;19.20;99.90;;;;;;5091952;28;20054;-69
2023/09/06 06:10:19;;;;;;;12.27;7.43;;;19.40;99.90;;;;;;5091664;28;20506;-69
2023/09/06 06:12:46;;;;;;;9.88;7.13;;;19.50;99.90;;;;;;5091531;28;20096;-69
2023/09/06 06:15:12;;;;;;;10.50;7.97;;;19.70;99.90;;;;;;5091796;28;20044;-69
2023/09/06 06:17:39;;;;;;;10.10;7.90;;;19.90;99.90;;;;;;5091880;28;20071;-69
2023/09/06 06:20:06;;;;;;;8.20;7.30;;;20.10;99.90;;;;;;5091790;28;20036;-70
2023/09/06 06:22:37;;;;;;;7.70;6.82;;;20.10;99.90;;;;;;5091930;28;20081;-69
2023/09/06 06:25:05;;;;;;;10.00;7.50;;;20.30;99.90;;;;;;5091563;28;20075;-68
2023/09/06 06:27:30;;;;;;;11.30;7.63;;;20.30;99.90;;;;;;5091558;28;20044;-68
2023/09/06 06:29:56;;;;;;;9.27;6.65;;;20.50;99.90;;;;;;5091717;28;20089;-68
2023/09/06 06:32:22;;;;;;;10.35;8.10;;;20.60;99.90;;;;;;5091721;28;20036;-69
2023/09/06 06:34:50;;;;;;;10.90;7.25;;;20.70;99.90;;;;;;5091568;28;20403;-68
2023/09/06 06:37:16;;;;;;;9.98;6.55;;;20.90;99.90;;;;;;5091531;28;20047;-68
2023/09/06 06:39:42;;;;;;;8.20;6.20;;;21.10;99.90;;;;;;5088009;28;20036;-68
2023/09/06 06:42:08;;;;;;;7.97;6.30;;;21.40;99.90;;;;;;5091827;28;20495;-68
2023/09/06 06:44:33;;;;;;;7.05;5.97;;;21.70;99.90;;;;;;5091500;28;20050;-68
2023/09/06 06:46:59;;;;;;;8.70;6.20;;;21.90;99.90;;;;;;5091505;28;20377;-69
2023/09/06 06:49:25;;;;;;;7.55;5.88;;;22.10;99.90;;;;;;5089875;28;20040;-69
2023/09/06 06:51:51;;;;;;;7.28;5.18;;;22.20;99.90;;;;;;5091328;28;20491;-69
2023/09/06 06:54:16;;;;;;;7.32;5.70;;;22.40;99.90;;;;;;5091030;28;20051;-69
2023/09/06 06:56:42;;;;;;;7.38;5.88;;;22.60;99.90;;;;;;5092352;28;20079;-69
2023/09/06 06:59:08;;;;;;;6.85;5.22;;;22.60;99.90;;;;;;5095134;28;20040;-68
2023/09/06 07:01:35;;;;;;;8.50;5.35;;;22.80;99.90;;;;;;5095438;28;20414;-69
2023/09/06 07:04:01;;;;;;;7.10;5.32;;;22.90;99.90;;;;;;5095151;28;20384;-69
2023/09/06 07:06:29;;;;;;;6.75;5.45;;;22.90;99.90;;;;;;5093811;28;20051;-69
2023/09/06 07:08:54;;;;;;;6.55;4.70;;;23.00;99.90;;;;;;5094630;28;20519;-69
2023/09/06 07:11:20;;;;;;;8.00;4.93;;;23.20;99.90;;;;;;5094909;28;20071;-69
2023/09/06 07:13:47;;;;;;;6.82;5.18;;;23.30;99.90;;;;;;5094847;28;20126;-69
2023/09/06 07:16:15;;;;;;;8.05;5.35;;;23.30;99.90;;;;;;5093709;28;20085;-69
2023/09/06 07:18:41;;;;;;;6.07;4.40;;;23.30;99.90;;;;;;5094762;28;20115;-69
2023/09/06 07:21:07;;;;;;;6.15;4.10;;;23.50;99.90;;;;;;5093477;28;20139;-69
2023/09/06 07:23:32;;;;;;;6.80;4.35;;;23.60;99.90;;;;;;5093534;28;20407;-69
2023/09/06 07:25:58;;;;;;;5.45;4.13;;;23.80;99.90;;;;;;5090112;28;20044;-68
2023/09/06 07:28:23;;;;;;;5.50;4.60;;;24.10;99.90;;;;;;5093341;28;20036;-69
2023/09/06 07:30:49;;;;;;;9.55;4.90;;;24.40;99.90;;;;;;5094516;28;20105;-69
2023/09/06 07:33:15;;;;;;;5.80;4.63;;;24.40;99.90;;;;;;5094666;28;20043;-69
2023/09/06 07:35:42;;;;;;;6.18;4.20;;;24.60;99.90;;;;;;5094457;28;20032;-70
2023/09/06 07:38:08;;;;;;;6.20;4.68;;;24.70;99.90;;;;;;5093089;28;20072;-69
2023/09/06 07:40:33;;;;;;;6.53;4.30;;;24.80;99.90;;;;;;5094266;28;20507;-69
2023/09/06 07:42:59;;;;;;;7.10;4.30;;;25.00;99.90;;;;;;5093161;28;20036;-70
2023/09/06 07:45:24;;;;;;;10.07;4.55;;;25.30;99.90;;;;;;5093112;28;20040;-69
2023/09/06 07:47:51;;;;;;;6.90;4.38;;;25.40;99.90;;;;;;5094456;28;20036;-69
2023/09/06 07:50:17;;;;;;;5.20;4.28;;;25.50;99.90;;;;;;5094178;28;20040;-69
2023/09/06 07:52:42;;;;;;;6.50;3.83;;;25.60;99.90;;;;;;5094161;28;20472;-69
2023/09/06 07:55:08;;;;;;;6.07;4.38;;;25.70;99.90;;;;;;5094121;28;20109;-69
2023/09/06 07:57:34;;;;;;;7.90;4.10;;;25.90;99.90;;;;;;5093989;28;20495;-69
2023/09/06 08:00:00;;;;;;;6.07;4.38;;;26.00;99.90;;;;;;5094093;28;20036;-68
2023/09/06 08:02:25;;;;;;;5.40;4.03;;;26.00;99.90;;;;;;5088228;28;20083;-69
2023/09/06 08:04:51;;;;;;;6.13;3.72;;;25.80;99.90;;;;;;5084335;28;20118;-69
2023/09/06 08:07:21;;;;;;;4.68;3.47;;;26.30;99.90;;;;;;5082642;28;20115;-69
2023/09/06 08:09:46;;;;;;;5.90;3.53;;;26.40;99.90;;;;;;5081005;28;20083;-69
2023/09/06 08:12:12;;;;;;;3.90;3.40;;;26.40;99.90;;;;;;5087916;28;20111;-69
2023/09/06 08:14:39;;;;;;;4.40;3.30;;;26.30;99.90;;;;;;5081899;28;20029;-68
2023/09/06 08:17:04;;;;;;;4.47;3.53;;;26.60;99.90;;;;;;5073655;28;20041;-69
2023/09/06 08:19:30;;;;;;;4.40;3.33;;;26.60;99.90;;;;;;5073294;28;20093;-69
2023/09/06 08:21:56;;;;;;;5.35;3.10;;;26.70;99.90;;;;;;5073534;28;20048;-69
2023/09/06 08:24:21;;;;;;;3.67;2.63;;;26.70;99.90;;;;;;5073698;28;20430;-69
2023/09/06 08:26:48;;;;;;;6.22;3.00;;;27.10;99.90;;;;;;5073553;28;20044;-69
2023/09/06 08:29:13;;;;;;;6.05;2.70;;;27.00;99.90;;;;;;5073258;28;20450;-69
2023/09/06 08:31:39;;;;;;;5.80;2.80;;;27.30;99.90;;;;;;5073419;28;20047;-69
2023/09/06 08:34:05;;;;;;;6.13;2.92;;;27.40;99.80;;;;;;5073123;28;20407;-69
2023/09/06 08:36:30;;;;;;;4.85;2.70;;;27.40;99.60;;;;;;5083311;28;20036;-69
2023/09/06 08:38:56;;;;;;;5.63;2.53;;;27.20;99.00;;;;;;5093180;28;20040;-69
2023/09/06 08:41:22;;;;;;;3.83;2.72;;;27.40;98.60;;;;;;5093322;28;20119;-70
2023/09/06 08:43:50;;;;;;;4.38;3.10;;;27.40;98.20;;;;;;5093230;28;20495;-69
2023/09/06 08:46:24;;;;;;;6.32;2.75;;;27.30;98.10;;;;;;5093358;28;20407;-70
2023/09/06 08:48:52;;;;;;;3.35;2.60;;;27.50;96.90;;;;;;5092804;28;20032;-70
2023/09/06 08:51:19;;;;;;;2.65;2.08;;;27.50;97.50;;;;;;5093457;28;20040;-70
2023/09/06 08:53:47;;;;;;;5.38;3.03;;;27.80;98.10;;;;;;5093035;28;20040;-70
2023/09/06 08:56:15;;;;;;;4.70;2.40;;;27.70;97.30;;;;;;5093213;28;20119;-70
2023/09/06 08:58:41;;;;;;;5.32;2.58;;;27.70;97.20;;;;;;5091536;28;20587;-70
2023/09/06 09:01:06;;;;;;;4.88;2.40;;;27.70;97.30;;;;;;5092987;28;20071;-71
2023/09/06 09:03:33;;;;;;;4.57;2.38;;;27.70;97.30;;;;;;5092715;28;20075;-70
2023/09/06 09:06:00;;;;;;;4.47;2.10;;;27.70;97.10;;;;;;5093108;28;20051;-70
2023/09/06 09:08:30;;;;;;;3.05;2.03;;;27.70;96.40;;;;;;5091417;28;20519;-71
2023/09/06 09:11:11;;;;;;;3.92;2.55;;;27.80;95.90;;;;;;5092708;28;20083;-71
2023/09/06 09:13:37;;;;;;;4.78;2.05;;;27.70;94.90;;;;;;5092419;28;20492;-70
2023/09/06 09:16:09;;;;;;;3.50;2.15;;;27.90;96.40;;;;;;5092599;28;20043;-70
2023/09/06 09:18:37;;;;;;;3.58;2.20;;;27.90;95.10;;;;;;5092072;28;20068;-70
2023/09/06 09:21:03;;;;;;;3.63;2.35;;;28.00;93.90;;;;;;5092505;28;20043;-70
2023/09/06 09:23:30;;;;;;;5.03;2.40;;;27.80;94.00;;;;;;5092627;28;20040;-70
2023/09/06 09:25:57;;;;;;;2.63;2.08;;;27.90;93.80;;;;;;5092631;28;20048;-70
2023/09/06 09:28:22;;;;;;;2.90;2.03;;;27.90;93.40;;;;;;5088061;28;20044;-70
2023/09/06 09:30:49;;;;;;;4.50;2.00;;;27.80;92.70;;;;;;5089885;28;20050;-70
2023/09/06 09:33:14;;;;;;;5.47;2.30;;;27.70;93.00;;;;;;5092476;28;20074;-70
2023/09/06 09:35:40;;;;;;;3.85;2.30;;;27.70;93.70;;;;;;5092221;28;20079;-70
2023/09/06 09:38:10;;;;;;;6.82;2.17;;;27.70;93.60;;;;;;5092234;28;20046;-70
2023/09/06 09:40:37;;;;;;;4.18;2.20;;;27.70;92.50;;;;;;5092288;28;20437;-70
2023/09/06 09:43:04;;;;;;;3.08;1.73;;;27.70;92.90;;;;;;5091075;28;20074;-70
2023/09/06 09:45:43;;;;;;;4.57;2.10;;;27.80;92.40;;;;;;5092331;28;20109;-70
2023/09/06 09:48:09;;;;;;;4.93;1.75;;;27.70;91.60;;;;;;5092325;28;20044;-70
2023/09/06 09:50:38;;;;;;;3.05;2.10;;;27.70;92.70;;;;;;5092147;28;20071;-70
2023/09/06 09:53:09;;;;;;;2.38;2.15;;;27.70;93.40;;;;;;5092197;28;20036;-70
2023/09/06 09:55:41;;;;;;;2.78;2.00;;;27.70;93.40;;;;;;5092060;28;20036;-71
2023/09/06 09:58:09;;;;;;;6.28;2.05;;;27.70;93.10;;;;;;5090780;28;20040;-70
2023/09/06 10:00:39;;;;;;;3.45;1.95;;;27.70;91.10;;;;;;5092037;28;20059;-70
2023/09/06 10:03:05;;;;;;;3.78;2.65;;;27.70;91.00;;;;;;5081898;28;20044;-70
2023/09/06 10:05:31;;;;;;;3.08;1.95;;;27.60;90.80;;;;;;5070383;28;20090;-70
2023/09/06 10:07:58;;;;;;;4.80;2.20;;;27.60;91.00;;;;;;5070452;28;20040;-70
2023/09/06 10:10:24;;;;;;;3.72;1.95;;;27.50;90.00;;;;;;5071531;28;20548;-70
2023/09/06 10:12:52;;;;;;;2.67;1.95;;;27.70;90.40;;;;;;5076838;28;20036;-70
2023/09/06 10:15:24;;;;;;;5.30;2.40;;;27.70;90.10;;;;;;5086642;28;20040;-70
2023/09/06 10:17:54;;;;;;;2.63;1.98;;;27.80;91.30;;;;;;5080281;28;20045;-70
2023/09/06 10:20:23;;;;;;;2.83;2.05;;;27.90;91.30;;;;;;5088912;28;20036;-71
2023/09/06 10:22:54;;;;;;;4.53;2.00;;;27.70;89.50;;;;;;5090490;28;20035;-69
2023/09/06 10:25:20;;;;;;;4.03;2.55;;;27.80;88.80;;;;;;5091726;28;20067;-70
2023/09/06 10:27:50;;;;;;;3.08;2.38;;;27.80;90.10;;;;;;5091557;28;20071;-70
2023/09/06 10:30:20;;;;;;;3.30;1.65;;;27.80;89.20;;;;;;5093082;28;20043;-70
2023/09/06 10:32:46;;;;;;;4.35;1.80;;;28.00;89.00;;;;;;5095942;28;20051;-70
2023/09/06 10:35:27;;;;;;;3.20;1.77;;;28.00;89.00;;;;;;5095274;28;20511;-70
2023/09/06 10:38:11;;;;;;;3.90;2.17;;;28.00;86.00;;;;;;5087785;28;20427;-70
2023/09/06 10:40:49;;;;;;;6.85;2.20;;;28.10;82.90;;;;;;5092071;28;20028;-70
2023/09/06 10:43:26;;;;;;;3.58;1.70;;;28.10;84.80;;;;;;5094465;28;20118;-70
2023/09/06 10:46:27;;;;;;;2.47;1.92;;;28.10;83.30;;;;;;5095378;28;20513;-70
2023/09/06 10:49:11;;;;;;;2.53;1.70;;;28.10;84.30;;;;;;5095272;28;20468;-70
2023/09/06 10:52:04;;;;;;;4.03;2.08;;;28.20;82.80;;;;;;5095431;28;20488;-70
2023/09/06 10:54:37;;;;;;;;;;;28.20;81.60;;;;;;5096174;28;20044;-70
2023/09/06 10:57:07;;;;;;;2.90;1.90;;;28.20;85.70;;;;;;5095533;28;19938;-70
2023/09/06 10:59:55;;;;;;;2.58;1.60;;;28.30;84.40;;;;;;5095038;28;20036;-69
2023/09/06 11:02:26;;;;;;;3.83;1.77;;;28.30;76.80;;;;;;5095264;28;20035;-69
2023/09/06 11:05:15;;;;;;;3.78;1.90;;;28.30;78.00;;;;;;5095482;28;20039;-69
2023/09/06 11:07:45;;;;;;;3.25;1.90;;;28.20;78.60;;;;;;5095159;28;20076;-69
2023/09/06 11:10:11;;;;;;;4.72;1.90;;;28.20;75.60;;;;;;5095056;28;20043;-70
2023/09/06 11:12:38;;;;;;;5.63;2.08;;;28.20;74.00;;;;;;5085730;28;20028;-69
2023/09/06 11:15:05;;;;;;;4.85;2.08;;;28.20;73.30;;;;;;5082940;28;20044;-70
2023/09/06 11:17:31;;;;;;;2.53;1.80;;;28.10;72.90;;;;;;5078384;28;20044;-69
2023/09/06 11:20:13;;;;;;;2.63;1.60;;;28.20;74.70;;;;;;5074569;28;20037;-69
2023/09/06 11:22:53;;;;;;;15.20;2.38;;;28.10;73.60;;;;;;5082560;28;20058;-69
2023/09/06 11:25:21;;;;;;;4.05;2.05;;;28.20;73.00;;;;;;5084155;28;20028;-70
2023/09/06 11:27:48;;;;;;;3.42;1.90;;;28.20;73.20;;;;;;5081660;28;20053;-70
2023/09/06 11:30:21;;;;;;;4.65;2.05;;;28.40;73.80;;;;;;5073001;28;20500;-70
2023/09/06 11:32:51;;;;;;;3.15;1.90;;;28.40;74.60;;;;;;5074458;28;20542;-69
2023/09/06 11:35:26;;;;;;;4.07;1.90;;;28.50;75.80;;;;;;5083254;28;20033;-69
2023/09/06 11:37:53;;;;;;;2.90;1.77;;;28.60;74.60;;;;;;5083107;28;20032;-69
2023/09/06 11:40:20;;;;;;;3.15;1.60;;;28.50;72.30;;;;;;5084450;28;20032;-69
2023/09/06 11:42:54;;;;;;;1.70;1.50;;;28.50;71.10;;;;;;5083996;28;20044;-70
2023/09/06 11:45:21;;;;;;;4.47;1.88;;;28.40;70.90;;;;;;5091188;28;20047;-69
2023/09/06 11:47:47;;;;;;;3.55;1.88;;;28.50;71.90;;;;;;5089404;28;20044;-69
2023/09/06 11:50:18;;;;;;;3.88;1.65;;;28.60;70.50;;;;;;5094195;28;20107;-69
2023/09/06 11:52:48;;;;;;;5.50;1.95;;;28.70;70.40;;;;;;5085422;28;20101;-69
2023/09/06 11:55:18;;;;;;;5.72;2.20;;;28.60;71.40;;;;;;5081637;28;20519;-69
2023/09/06 11:57:57;;;;;;;3.00;1.63;;;28.60;70.70;;;;;;5072894;28;20052;-69
2023/09/06 12:00:35;;;;;;;4.90;1.75;;;28.60;71.20;;;;;;5073915;28;20037;-70
2023/09/06 12:03:07;;;;;;;2.28;1.52;;;28.70;70.40;;;;;;5074292;28;20112;-70
2023/09/06 12:05:37;;;;;;;5.35;1.92;;;28.80;69.90;;;;;;5072932;28;20407;-70
2023/09/06 12:08:04;;;;;;;4.85;2.28;;;28.70;70.70;;;;;;5072692;28;20063;-70
2023/09/06 12:10:31;;;;;;;4.88;2.75;;;28.80;69.90;;;;;;5072536;28;20036;-70
2023/09/06 12:12:57;;;;;;;3.13;1.52;;;28.80;68.70;;;;;;5073589;28;20052;-70
2023/09/06 12:15:25;;;;;;;3.22;1.60;;;28.70;69.50;;;;;;5072273;28;20049;-70
2023/09/06 12:17:51;;;;;;;4.95;2.08;;;28.70;69.20;;;;;;5073760;28;20040;-69
2023/09/06 12:20:23;;;;;;;2.35;1.60;;;28.80;68.80;;;;;;5084020;28;20495;-70
2023/09/06 12:22:50;;;;;;;2.55;1.25;;;28.70;66.90;;;;;;5076318;28;20039;-70
2023/09/06 12:25:18;;;;;;;2.42;1.65;;;28.70;67.40;;;;;;5073206;28;20047;-69
2023/09/06 12:27:44;;;;;;;1.92;1.20;;;28.80;67.00;;;;;;5072098;28;20044;-69
2023/09/06 12:30:10;;;;;;;3.35;1.50;;;28.90;69.00;;;;;;5073476;28;20102;-69
2023/09/06 12:32:40;;;;;;;2.45;1.42;;;28.90;68.40;;;;;;5073474;28;20043;-69
2023/09/06 12:35:07;;;;;;;4.00;1.80;;;29.00;68.40;;;;;;5071809;28;20048;-69
2023/09/06 12:37:36;;;;;;;4.90;2.03;;;29.00;67.60;;;;;;5073200;28;20040;-69
2023/09/06 12:40:10;;;;;;;4.43;1.80;;;29.10;68.00;;;;;;5073078;28;20037;-68
2023/09/06 12:42:47;;;;;;;5.75;1.85;;;29.10;67.30;;;;;;5084852;28;20024;-68
2023/09/06 12:45:28;;;;;;;5.63;1.80;;;29.10;67.50;;;;;;5092217;28;20080;-68
2023/09/06 12:47:54;;;;;;;2.78;1.70;;;29.10;67.30;;;;;;5093328;28;20042;-68
2023/09/06 12:50:20;;;;;;;3.00;1.58;;;29.10;68.90;;;;;;5093122;28;20050;-68
2023/09/06 12:52:47;;;;;;;2.00;1.30;;;29.10;68.80;;;;;;5092695;28;20403;-69
2023/09/06 12:55:13;;;;;;;3.40;1.80;;;29.10;69.00;;;;;;5091994;28;20036;-69
2023/09/06 12:57:38;;;;;;;2.30;1.55;;;29.20;68.10;;;;;;5090069;28;20077;-68
2023/09/06 13:00:07;;;;;;;3.88;1.48;;;29.20;69.20;;;;;;5092956;28;20075;-69
2023/09/06 13:02:33;;;;;;;2.50;1.40;;;29.30;68.30;;;;;;5093016;28;20582;-69
2023/09/06 13:05:00;;;;;;;2.33;1.60;;;29.30;68.20;;;;;;5092884;28;20082;-69
2023/09/06 13:07:27;;;;;;;2.38;1.70;;;29.30;69.00;;;;;;5092646;28;20044;-68
2023/09/06 13:09:52;;;;;;;3.60;1.75;;;29.40;69.10;;;;;;5092842;28;20100;-68
2023/09/06 13:12:18;;;;;;;4.00;1.90;;;29.50;70.80;;;;;;5092770;28;20131;-69
2023/09/06 13:14:43;;;;;;;1.83;1.50;;;29.50;69.10;;;;;;5092434;28;20040;-69
2023/09/06 13:17:09;;;;;;;3.72;1.85;;;29.50;69.00;;;;;;5092753;28;20028;-69